TimeCEST,TemperatureF,Dew PointF,Humidity,Sea Level PressureIn,VisibilityMPH,Wind Direction,Wind SpeedMPH,Gust SpeedMPH,PrecipitationIn,Events,Conditions,WindDirDegrees,DateUTC
12:00 AM,77.0,53.6,44,30.04,-9999.0,SW,10.4,-,N/A,,Clear,230,2013-06-27 22:00:00
12:30 AM,77.0,53.6,44,30.04,-9999.0,SW,8.1,-,N/A,,Clear,230,2013-06-27 22:30:00
1:00 AM,75.2,53.6,47,30.06,-9999.0,SW,9.2,-,N/A,,Clear,230,2013-06-27 23:00:00
4:30 AM,69.8,57.2,64,30.06,-9999.0,NW,3.5,-,N/A,,Clear,320,2013-06-28 02:30:00
5:00 AM,68.0,57.2,68,30.06,-9999.0,NW,3.5,-,N/A,,Clear,320,2013-06-28 03:00:00
5:30 AM,68.0,59.0,73,30.06,-9999.0,NW,4.6,-,N/A,,Clear,310,2013-06-28 03:30:00
6:00 AM,68.0,59.0,73,30.09,-9999.0,WNW,6.9,-,N/A,,Clear,290,2013-06-28 04:00:00
6:30 AM,68.0,59.0,73,30.09,-9999.0,West,3.5,-,N/A,,Clear,280,2013-06-28 04:30:00
7:00 AM,66.2,59.0,78,30.09,-9999.0,Variable,1.2,-,N/A,,Clear,0,2013-06-28 05:00:00
7:30 AM,68.0,59.0,73,30.09,-9999.0,Variable,1.2,-,N/A,,Clear,0,2013-06-28 05:30:00
8:00 AM,68.0,59.0,73,30.09,-9999.0,Calm,Calm,-,N/A,,Clear,0,2013-06-28 06:00:00
8:30 AM,69.8,59.0,68,30.09,-9999.0,Calm,Calm,-,N/A,,Clear,0,2013-06-28 06:30:00
9:00 AM,71.6,59.0,64,30.09,-9999.0,Calm,Calm,-,N/A,,Clear,0,2013-06-28 07:00:00
9:30 AM,73.4,57.2,57,30.09,-9999.0,Variable,2.3,-,N/A,,Clear,0,2013-06-28 07:30:00
10:00 AM,75.2,57.2,53,30.09,-9999.0,Variable,2.3,-,N/A,,Clear,0,2013-06-28 08:00:00
10:30 AM,77.0,55.4,47,30.09,-9999.0,NNE,1.2,-,N/A,,Clear,20,2013-06-28 08:30:00
11:00 AM,77.0,53.6,44,30.09,-9999.0,Variable,1.2,-,N/A,,Clear,0,2013-06-28 09:00:00
11:30 AM,80.6,53.6,39,30.09,-9999.0,ENE,1.2,-,N/A,,Clear,70,2013-06-28 09:30:00
12:00 PM,80.6,53.6,39,30.09,-9999.0,Variable,2.3,-,N/A,,Clear,0,2013-06-28 10:00:00
12:30 PM,82.4,53.6,37,30.09,-9999.0,Calm,Calm,-,N/A,,Clear,0,2013-06-28 10:30:00
1:00 PM,84.2,53.6,35,30.09,-9999.0,ESE,1.2,-,N/A,,Clear,110,2013-06-28 11:00:00
1:30 PM,86.0,51.8,31,30.09,-9999.0,NW,2.3,-,N/A,,Clear,320,2013-06-28 11:30:00
2:00 PM,86.0,51.8,31,30.09,-9999.0,NNE,3.5,-,N/A,,Clear,30,2013-06-28 12:00:00
2:30 PM,87.8,53.6,31,30.09,-9999.0,NW,3.5,-,N/A,,Clear,310,2013-06-28 12:30:00
3:00 PM,87.8,51.8,29,30.06,-9999.0,NW,3.5,-,N/A,,Clear,320,2013-06-28 13:00:00
3:30 PM,89.6,51.8,27,30.06,-9999.0,East,1.2,-,N/A,,Clear,90,2013-06-28 13:30:00
4:00 PM,91.4,50.0,24,30.06,-9999.0,WSW,4.6,-,N/A,,Clear,250,2013-06-28 14:00:00
4:30 PM,93.2,50.0,23,30.06,-9999.0,WNW,2.3,-,N/A,,Clear,290,2013-06-28 14:30:00
5:00 PM,93.2,50.0,23,30.04,-9999.0,East,2.3,-,N/A,,Clear,100,2013-06-28 15:00:00
5:30 PM,95.0,50.0,22,30.04,-9999.0,SW,2.3,-,N/A,,Clear,230,2013-06-28 15:30:00
6:00 PM,93.2,50.0,23,30.04,-9999.0,SSE,4.6,-,N/A,,Clear,150,2013-06-28 16:00:00
6:30 PM,93.2,51.8,24,30.04,-9999.0,SSW,5.8,17.3,N/A,,Clear,210,2013-06-28 16:30:00
7:00 PM,91.4,53.6,28,30.04,-9999.0,SSW,9.2,-,N/A,,Clear,210,2013-06-28 17:00:00
7:30 PM,91.4,51.8,26,30.04,-9999.0,SW,9.2,-,N/A,,Clear,230,2013-06-28 17:30:00
8:00 PM,91.4,51.8,26,30.04,-9999.0,SW,8.1,-,N/A,,Clear,220,2013-06-28 18:00:00
8:30 PM,89.6,51.8,27,30.04,-9999.0,SW,8.1,-,N/A,,Clear,230,2013-06-28 18:30:00
9:00 PM,89.6,51.8,27,30.04,-9999.0,SW,10.4,-,N/A,,Clear,220,2013-06-28 19:00:00
9:30 PM,86.0,51.8,31,30.04,-9999.0,SW,10.4,-,N/A,,Clear,220,2013-06-28 19:30:00
10:00 PM,86.0,50.0,29,30.04,-9999.0,SW,10.4,-,N/A,,Clear,230,2013-06-28 20:00:00
10:30 PM,84.2,50.0,30,30.06,-9999.0,West,9.2,-,N/A,,Clear,270,2013-06-28 20:30:00
11:00 PM,80.6,50.0,34,30.06,-9999.0,West,6.9,-,N/A,,Clear,270,2013-06-28 21:00:00
11:30 PM,80.6,50.0,34,30.06,-9999.0,Variable,2.3,-,N/A,,Clear,0,2013-06-28 21:30:00